Time;durP1;ratioP1;P1;durP2;ratioP2;P2;SDS_P1;SDS_P2;PMS_P1;PMS_P2;Temp;Humidity;BMP_temperature;BMP_pressure;BME280_temperature;BME280_humidity;BME280_pressure;Samples;Min_cycle;Max_cycle;Signal;HPM_P1;HPM_P2
2021/08/09 00:00:37;;;;;;;9.95;3.88;;;16.30;99.90;;;;;;4917103;29;20477;-63
2021/08/09 00:03:03;;;;;;;8.02;3.60;;;16.30;99.90;;;;;;4917430;29;20029;-63
2021/08/09 00:05:29;;;;;;;7.57;4.35;;;16.30;99.90;;;;;;4917080;29;20120;-63
2021/08/09 00:07:54;;;;;;;7.80;3.90;;;16.30;99.90;;;;;;4917339;29;20020;-63
2021/08/09 00:10:20;;;;;;;6.75;4.30;;;16.30;99.90;;;;;;4917194;29;20460;-63
2021/08/09 00:12:46;;;;;;;7.45;3.78;;;16.30;99.90;;;;;;4917155;29;20520;-63
2021/08/09 00:15:12;;;;;;;7.93;4.38;;;16.30;99.90;;;;;;4917260;29;20484;-63
2021/08/09 00:17:38;;;;;;;7.80;4.20;;;16.30;99.90;;;;;;4916408;29;20103;-63
2021/08/09 00:20:05;;;;;;;8.18;4.70;;;16.30;99.90;;;;;;4917209;29;20116;-63
2021/08/09 00:22:31;;;;;;;9.68;4.97;;;16.30;99.90;;;;;;4916764;29;20056;-64
2021/08/09 00:24:57;;;;;;;8.23;5.63;;;16.30;99.90;;;;;;4916906;29;20066;-65
2021/08/09 00:27:22;;;;;;;10.52;5.53;;;16.30;99.90;;;;;;4917097;29;20095;-65
2021/08/09 00:29:48;;;;;;;12.60;6.65;;;16.30;99.90;;;;;;4916995;29;20420;-65
2021/08/09 00:32:14;;;;;;;16.65;7.03;;;16.30;99.90;;;;;;4916652;29;20028;-66
2021/08/09 00:34:40;;;;;;;14.82;7.40;;;16.40;99.90;;;;;;4916556;29;20044;-66
2021/08/09 00:37:06;;;;;;;21.30;7.50;;;16.40;99.90;;;;;;4916631;29;20107;-66
2021/08/09 00:39:31;;;;;;;15.35;7.07;;;16.40;99.90;;;;;;4916761;29;20153;-66
2021/08/09 00:41:57;;;;;;;14.60;7.03;;;16.40;99.90;;;;;;4916483;29;20483;-66
2021/08/09 00:44:23;;;;;;;16.70;7.07;;;16.40;99.90;;;;;;4916558;29;20035;-66
2021/08/09 00:46:49;;;;;;;16.60;7.25;;;16.40;99.90;;;;;;4916405;29;20123;-66
2021/08/09 00:49:14;;;;;;;15.57;6.60;;;16.50;99.90;;;;;;4916311;29;20135;-66
2021/08/09 00:51:40;;;;;;;14.05;6.28;;;16.50;99.90;;;;;;4916409;29;20071;-66
2021/08/09 00:54:06;;;;;;;15.23;6.75;;;16.50;99.90;;;;;;4916789;29;20028;-66
2021/08/09 00:56:32;;;;;;;11.32;6.22;;;16.50;99.90;;;;;;4916375;29;20123;-66
2021/08/09 00:58:59;;;;;;;11.98;5.22;;;16.50;99.90;;;;;;4916483;29;20499;-66
2021/08/09 01:01:25;;;;;;;10.60;5.40;;;16.60;99.90;;;;;;4916406;29;20107;-66
2021/08/09 01:03:51;;;;;;;13.18;5.05;;;16.60;99.90;;;;;;4916189;29;20524;-65
2021/08/09 01:06:16;;;;;;;10.98;5.45;;;16.60;99.90;;;;;;4916485;29;20043;-65
2021/08/09 01:09:02;;;;;;;9.40;5.18;;;16.60;99.90;;;;;;4916194;29;20039;-66
2021/08/09 01:11:44;;;;;;;9.50;5.03;;;16.60;99.90;;;;;;4916225;29;20040;-66
2021/08/09 01:14:42;;;;;;;17.27;5.75;;;16.70;99.90;;;;;;4916095;29;20031;-66
2021/08/09 01:48:40;;;;;;;15.68;5.63;;;16.50;99.90;;;;;;4915223;29;20530;-65
2021/08/09 01:51:06;;;;;;;11.07;5.32;;;16.60;99.90;;;;;;4915817;29;20055;-65
2021/08/09 01:53:32;;;;;;;10.18;4.90;;;16.60;99.90;;;;;;4915641;29;20064;-65
2021/08/09 01:55:58;;;;;;;9.18;4.93;;;16.60;99.90;;;;;;4915734;29;20068;-65
2021/08/09 01:58:24;;;;;;;8.15;4.85;;;16.50;99.90;;;;;;4915838;29;20024;-65
2021/08/09 02:00:50;;;;;;;11.45;4.97;;;16.50;99.90;;;;;;4915836;29;20028;-65
2021/08/09 02:03:16;;;;;;;7.10;5.05;;;16.50;99.90;;;;;;4915899;29;20468;-66
2021/08/09 02:05:42;;;;;;;7.55;4.82;;;16.50;99.90;;;;;;4915536;29;20461;-66
2021/08/09 02:08:11;;;;;;;6.90;4.40;;;16.50;99.90;;;;;;4915911;29;20087;-66
2021/08/09 02:10:37;;;;;;;7.95;4.50;;;16.50;99.90;;;;;;4916006;29;20402;-66
2021/08/09 02:13:06;;;;;;;9.52;4.72;;;16.40;99.90;;;;;;4915528;29;20480;-66
2021/08/09 02:16:01;;;;;;;5.68;4.38;;;16.40;99.90;;;;;;4915811;29;20036;-66
2021/08/09 02:18:42;;;;;;;6.47;4.78;;;16.40;99.90;;;;;;4915711;29;20028;-66
2021/08/09 02:21:12;;;;;;;6.97;4.40;;;16.40;99.90;;;;;;4915503;29;20029;-66
2021/08/09 02:23:51;;;;;;;8.65;5.18;;;16.40;99.90;;;;;;4915638;29;20028;-66
2021/08/09 02:26:27;;;;;;;7.97;5.07;;;16.40;99.90;;;;;;4915793;29;20028;-66
2021/08/09 02:28:55;;;;;;;7.50;5.30;;;16.40;99.90;;;;;;4915255;29;20559;-66
2021/08/09 02:31:23;;;;;;;5.78;4.68;;;16.40;99.90;;;;;;4915726;29;20400;-65
2021/08/09 02:33:50;;;;;;;9.73;5.30;;;16.40;99.90;;;;;;4915439;29;20024;-66
2021/08/09 02:36:16;;;;;;;5.95;5.20;;;16.50;99.90;;;;;;4915585;29;20099;-65
2021/08/09 02:38:43;;;;;;;9.70;5.28;;;16.50;99.90;;;;;;4915230;29;20028;-65
2021/08/09 02:41:09;;;;;;;7.05;4.22;;;16.50;99.90;;;;;;4916026;29;20114;-65
2021/08/09 02:43:35;;;;;;;12.18;5.70;;;16.50;99.90;;;;;;4918704;29;20032;-65
2021/08/09 02:46:03;;;;;;;5.97;4.85;;;16.60;99.90;;;;;;4918549;29;20036;-65
2021/08/09 02:48:31;;;;;;;6.43;4.82;;;16.60;99.90;;;;;;4918788;29;20028;-65
2021/08/09 02:50:57;;;;;;;6.72;4.78;;;16.60;99.90;;;;;;4918681;29;20404;-65
2021/08/09 02:53:24;;;;;;;6.97;4.60;;;16.60;99.90;;;;;;4918765;29;20035;-65
2021/08/09 02:55:57;;;;;;;9.15;4.80;;;16.60;99.90;;;;;;4918377;29;20036;-66
2021/08/09 02:58:23;;;;;;;11.68;4.45;;;16.60;99.90;;;;;;4918461;29;20419;-65
2021/08/09 03:00:51;;;;;;;8.20;5.30;;;16.70;99.90;;;;;;4918265;29;20032;-65
2021/08/09 03:03:27;;;;;;;12.30;4.85;;;16.70;99.90;;;;;;4918400;29;20029;-66
2021/08/09 03:05:58;;;;;;;6.60;4.88;;;16.70;99.90;;;;;;4918360;29;20031;-66
2021/08/09 03:08:25;;;;;;;8.63;4.80;;;16.70;99.90;;;;;;4918475;29;20066;-66
2021/08/09 03:10:51;;;;;;;6.00;4.18;;;16.70;99.90;;;;;;4918455;29;20024;-66
2021/08/09 03:13:24;;;;;;;6.28;4.68;;;16.70;99.90;;;;;;4918218;29;20088;-66
2021/08/09 03:15:52;;;;;;;5.50;4.82;;;16.70;99.90;;;;;;4918055;29;20429;-66
2021/08/09 03:18:18;;;;;;;7.43;5.30;;;16.70;99.90;;;;;;4918055;29;20552;-66
2021/08/09 03:20:44;;;;;;;7.95;4.97;;;16.70;99.90;;;;;;4918268;29;20111;-66
2021/08/09 03:23:10;;;;;;;6.85;4.82;;;16.70;99.90;;;;;;4918386;29;20050;-66
2021/08/09 03:25:39;;;;;;;8.00;4.57;;;16.70;99.90;;;;;;4918442;29;20596;-66
2021/08/09 03:28:08;;;;;;;6.85;4.90;;;16.70;99.90;;;;;;4917765;29;20095;-66
2021/08/09 03:30:34;;;;;;;6.50;4.40;;;16.80;99.90;;;;;;4916768;29;20035;-66
2021/08/09 03:33:00;;;;;;;7.35;4.80;;;16.80;99.90;;;;;;4917937;29;20388;-67
2021/08/09 03:35:25;;;;;;;10.10;4.82;;;16.80;99.90;;;;;;4917739;29;20055;-66
2021/08/09 03:37:51;;;;;;;5.47;3.72;;;16.80;99.90;;;;;;4917818;29;20103;-67
2021/08/09 03:40:17;;;;;;;7.20;5.00;;;16.80;99.90;;;;;;4917970;29;20557;-67
2021/08/09 03:42:43;;;;;;;5.63;4.28;;;16.80;99.90;;;;;;4917609;29;20444;-66
2021/08/09 03:45:09;;;;;;;6.15;4.35;;;16.80;99.90;;;;;;4917513;29;20031;-66
2021/08/09 03:47:35;;;;;;;5.03;4.38;;;16.80;99.90;;;;;;4917849;29;20024;-66
2021/08/09 03:50:00;;;;;;;10.02;4.65;;;16.80;99.90;;;;;;4917232;29;20531;-66
2021/08/09 03:52:26;;;;;;;9.02;4.95;;;16.80;99.90;;;;;;4916661;29;20107;-67
2021/08/09 03:54:52;;;;;;;6.90;4.50;;;16.90;99.90;;;;;;4917072;29;20035;-66
2021/08/09 03:57:17;;;;;;;4.60;4.10;;;16.90;99.90;;;;;;4917625;29;20028;-66
2021/08/09 03:59:43;;;;;;;5.35;4.38;;;16.90;99.90;;;;;;4917376;29;20028;-67
2021/08/09 04:02:14;;;;;;;7.90;5.22;;;16.90;99.90;;;;;;4917231;29;20079;-66
2021/08/09 04:04:40;;;;;;;7.18;4.82;;;16.90;99.90;;;;;;4917594;29;20376;-66
2021/08/09 04:07:06;;;;;;;7.03;5.00;;;16.90;99.90;;;;;;4917423;29;20028;-66
2021/08/09 04:09:31;;;;;;;5.40;4.90;;;16.90;99.90;;;;;;4917053;29;20640;-66
2021/08/09 04:11:57;;;;;;;8.43;5.13;;;16.90;99.90;;;;;;4917211;29;20035;-67
2021/08/09 04:14:23;;;;;;;7.88;5.30;;;16.90;99.90;;;;;;4916957;29;20495;-67
2021/08/09 04:16:48;;;;;;;6.68;4.95;;;16.90;99.90;;;;;;4916884;29;20032;-67
2021/08/09 04:19:14;;;;;;;6.88;4.70;;;16.90;99.90;;;;;;4916922;29;20035;-66
2021/08/09 04:21:40;;;;;;;5.97;4.65;;;16.90;99.90;;;;;;4915611;29;20032;-66
2021/08/09 04:24:06;;;;;;;7.50;4.72;;;16.90;99.90;;;;;;4916809;29;20052;-67
2021/08/09 04:26:32;;;;;;;8.68;5.30;;;16.90;99.90;;;;;;4917018;29;20070;-67
2021/08/09 04:28:58;;;;;;;6.43;5.38;;;16.80;99.90;;;;;;4916772;29;20060;-66
2021/08/09 04:31:24;;;;;;;9.98;5.68;;;16.90;99.90;;;;;;4917193;29;20025;-67
2021/08/09 04:33:50;;;;;;;10.30;6.20;;;16.90;99.90;;;;;;4916923;29;20028;-66
2021/08/09 04:36:16;;;;;;;9.20;6.75;;;16.80;99.90;;;;;;4917006;29;20050;-67
2021/08/09 04:38:42;;;;;;;7.18;6.45;;;16.80;99.90;;;;;;4916842;29;20110;-67
2021/08/09 04:41:11;;;;;;;7.43;6.72;;;16.90;99.90;;;;;;4916635;29;20024;-67
2021/08/09 04:43:38;;;;;;;10.73;7.45;;;16.90;99.90;;;;;;4916436;29;20095;-67
2021/08/09 04:46:06;;;;;;;10.20;7.20;;;16.90;99.90;;;;;;4916671;29;20032;-68
2021/08/09 04:48:32;;;;;;;7.72;7.00;;;16.90;99.90;;;;;;4916255;29;20091;-68
2021/08/09 04:50:59;;;;;;;10.95;8.77;;;16.90;99.90;;;;;;4916299;29;20511;-68
2021/08/09 04:53:25;;;;;;;10.15;8.85;;;16.90;99.90;;;;;;4916299;29;20039;-68
2021/08/09 04:55:51;;;;;;;11.07;9.25;;;16.90;99.90;;;;;;4916079;29;20592;-68
2021/08/09 04:58:17;;;;;;;12.13;8.25;;;16.90;99.90;;;;;;4916325;29;20060;-68
2021/08/09 05:00:42;;;;;;;9.80;8.80;;;16.90;99.90;;;;;;4916306;29;20032;-68
2021/08/09 05:03:08;;;;;;;9.98;9.02;;;16.90;99.90;;;;;;4915978;29;20495;-68
2021/08/09 05:05:34;;;;;;;11.35;8.80;;;16.90;99.90;;;;;;4916096;29;20025;-67
2021/08/09 05:07:59;;;;;;;11.82;8.98;;;16.80;99.90;;;;;;4915679;29;20087;-67
2021/08/09 05:10:26;;;;;;;10.70;9.48;;;16.90;99.90;;;;;;4916130;29;20036;-67
2021/08/09 05:12:53;;;;;;;10.02;9.02;;;17.00;99.90;;;;;;4916487;29;20028;-67
2021/08/09 05:15:21;;;;;;;11.00;8.82;;;17.00;99.90;;;;;;4916113;29;20472;-67
2021/08/09 05:17:47;;;;;;;11.43;9.40;;;17.00;99.90;;;;;;4916001;29;20016;-67
2021/08/09 05:20:13;;;;;;;10.30;9.30;;;17.00;99.90;;;;;;4916104;29;20028;-67
2021/08/09 05:22:38;;;;;;;10.48;8.07;;;17.10;99.90;;;;;;4915940;29;20365;-66
2021/08/09 05:25:10;;;;;;;12.13;8.68;;;17.10;99.90;;;;;;4915774;29;20532;-66
2021/08/09 05:27:37;;;;;;;13.20;8.50;;;17.10;99.90;;;;;;4915908;29;20052;-68
2021/08/09 05:30:04;;;;;;;11.05;7.80;;;17.10;99.90;;;;;;4915811;29;20032;-69
2021/08/09 05:32:30;;;;;;;11.45;7.30;;;17.20;99.90;;;;;;4916078;29;20063;-67
2021/08/09 05:34:58;;;;;;;12.13;7.55;;;17.20;99.90;;;;;;4915823;29;20032;-67
2021/08/09 05:37:24;;;;;;;7.38;6.45;;;17.20;99.90;;;;;;4916048;29;20057;-67
2021/08/09 05:39:49;;;;;;;8.32;7.10;;;17.20;99.90;;;;;;4916001;29;20552;-67
2021/08/09 05:42:15;;;;;;;10.88;7.22;;;17.20;99.90;;;;;;4915499;29;20040;-66
2021/08/09 05:44:41;;;;;;;10.75;6.63;;;17.20;99.90;;;;;;4915654;29;20075;-66
2021/08/09 05:47:06;;;;;;;8.52;6.10;;;17.20;99.90;;;;;;4915784;29;20024;-66
2021/08/09 05:49:32;;;;;;;6.40;4.88;;;17.20;99.90;;;;;;4915535;29;20742;-66
2021/08/09 05:51:58;;;;;;;12.07;5.72;;;17.20;99.90;;;;;;4915695;29;20025;-66
2021/08/09 05:54:23;;;;;;;9.27;5.80;;;17.10;99.90;;;;;;4915563;29;20439;-66
2021/08/09 05:56:49;;;;;;;5.88;5.00;;;17.20;99.90;;;;;;4915802;29;20033;-66
2021/08/09 05:59:15;;;;;;;9.25;5.65;;;17.20;99.90;;;;;;4906363;29;20029;-66
2021/08/09 06:01:41;;;;;;;6.35;5.55;;;17.30;99.90;;;;;;4906982;29;20036;-66
2021/08/09 06:04:06;;;;;;;6.90;4.40;;;17.40;99.90;;;;;;4896745;29;20017;-66
2021/08/09 06:06:32;;;;;;;8.35;5.10;;;17.40;99.90;;;;;;4896704;29;20041;-66
2021/08/09 06:08:58;;;;;;;4.82;4.40;;;17.30;99.90;;;;;;4896559;29;20079;-67
2021/08/09 06:11:23;;;;;;;9.43;4.60;;;17.30;99.90;;;;;;4896679;29;20032;-66
2021/08/09 06:13:49;;;;;;;5.28;3.95;;;17.30;99.90;;;;;;4896514;29;20031;-67
2021/08/09 06:16:15;;;;;;;6.72;4.53;;;17.30;99.90;;;;;;4897327;29;20045;-66
2021/08/09 06:18:40;;;;;;;7.88;4.35;;;17.30;99.90;;;;;;4900164;29;20029;-65
2021/08/09 06:21:07;;;;;;;5.75;4.50;;;17.40;99.90;;;;;;4900153;29;20032;-65
2021/08/09 06:23:32;;;;;;;12.85;3.53;;;17.50;99.90;;;;;;4900084;29;20056;-66
2021/08/09 06:25:58;;;;;;;4.97;3.75;;;17.50;99.90;;;;;;4900138;29;20071;-65
2021/08/09 06:28:24;;;;;;;6.25;4.60;;;17.80;99.90;;;;;;4900192;29;20071;-65
2021/08/09 06:30:50;;;;;;;6.20;4.30;;;17.80;99.90;;;;;;4900261;29;20108;-65
2021/08/09 06:33:16;;;;;;;6.53;4.43;;;17.70;99.90;;;;;;4899828;29;20108;-65
2021/08/09 06:35:41;;;;;;;9.18;4.88;;;17.60;99.90;;;;;;4899902;29;20079;-65
2021/08/09 06:38:08;;;;;;;7.35;4.47;;;17.60;99.90;;;;;;4899745;29;20036;-65
2021/08/09 06:40:35;;;;;;;6.47;4.63;;;17.50;99.90;;;;;;4900043;29;20029;-65
2021/08/09 06:43:03;;;;;;;6.47;4.38;;;17.50;99.90;;;;;;4899748;29;20035;-65
2021/08/09 06:45:29;;;;;;;5.88;5.22;;;17.50;99.90;;;;;;4900193;29;20032;-65
2021/08/09 06:47:55;;;;;;;7.72;5.93;;;17.50;99.90;;;;;;4899761;29;20190;-65
2021/08/09 06:50:21;;;;;;;9.48;6.65;;;17.50;99.90;;;;;;4899473;29;20136;-65
2021/08/09 06:52:47;;;;;;;7.93;3.08;;;17.50;99.90;;;;;;4899631;29;20028;-66
2021/08/09 06:55:13;;;;;;;9.13;5.35;;;17.60;99.90;;;;;;4899609;29;20040;-65
2021/08/09 06:57:39;;;;;;;10.50;6.75;;;17.70;99.90;;;;;;4899879;29;20076;-65
2021/08/09 07:00:06;;;;;;;9.35;6.40;;;17.70;99.90;;;;;;4899397;29;20024;-66
2021/08/09 07:02:31;;;;;;;8.50;6.25;;;17.70;99.90;;;;;;4907003;29;20024;-66
2021/08/09 07:04:58;;;;;;;10.65;7.40;;;17.70;99.90;;;;;;4918124;29;20028;-66
2021/08/09 07:07:24;;;;;;;8.57;6.40;;;17.70;99.90;;;;;;4918526;29;20044;-66
2021/08/09 07:09:50;;;;;;;8.68;7.00;;;17.70;99.90;;;;;;4918111;29;20075;-66
2021/08/09 07:12:15;;;;;;;10.93;6.90;;;17.60;99.90;;;;;;4914534;29;20028;-66
2021/08/09 07:14:41;;;;;;;10.10;7.03;;;17.60;99.90;;;;;;4899380;29;20393;-66
2021/08/09 07:17:07;;;;;;;9.52;7.07;;;17.70;99.90;;;;;;4899079;29;20037;-68
2021/08/09 07:19:36;;;;;;;10.65;7.68;;;17.70;99.90;;;;;;4899066;29;20032;-66
2021/08/09 07:22:03;;;;;;;11.93;7.68;;;17.70;99.90;;;;;;4901695;29;20395;-66
2021/08/09 07:24:29;;;;;;;4.68;3.00;;;17.70;99.90;;;;;;4901672;29;20025;-67
2021/08/09 07:26:55;;;;;;;23.00;5.97;;;17.70;99.90;;;;;;4899020;29;20047;-66
2021/08/09 07:29:20;;;;;;;7.18;3.30;;;17.90;99.90;;;;;;4899303;29;20107;-66
2021/08/09 07:31:46;;;;;;;5.10;4.47;;;17.90;99.90;;;;;;4899174;29;20033;-67
2021/08/09 07:34:12;;;;;;;9.48;5.55;;;18.10;99.90;;;;;;4899125;29;20040;-68
2021/08/09 07:36:38;;;;;;;7.15;5.45;;;18.00;99.90;;;;;;4907334;29;20036;-67
2021/08/09 07:39:03;;;;;;;6.60;5.85;;;17.90;99.90;;;;;;4917841;29;20103;-67
2021/08/09 07:41:29;;;;;;;8.73;5.63;;;17.90;99.90;;;;;;4918069;29;20472;-67
2021/08/09 07:43:55;;;;;;;8.82;5.80;;;17.80;99.90;;;;;;4906025;29;20494;-67
2021/08/09 07:46:24;;;;;;;8.77;6.10;;;17.80;99.90;;;;;;4898671;29;20076;-68
2021/08/09 07:48:50;;;;;;;7.88;5.57;;;17.90;99.90;;;;;;4898743;29;20059;-68
2021/08/09 07:51:16;;;;;;;10.02;6.00;;;17.80;99.90;;;;;;4898529;29;20033;-68
2021/08/09 07:53:41;;;;;;;10.10;5.70;;;17.80;99.90;;;;;;4903915;29;20028;-68
2021/08/09 07:56:07;;;;;;;8.23;4.05;;;17.80;99.90;;;;;;4903164;29;20041;-68
2021/08/09 07:58:33;;;;;;;9.43;3.55;;;17.80;99.90;;;;;;4901133;29;20052;-68
2021/08/09 08:00:59;;;;;;;3.97;3.15;;;17.90;99.90;;;;;;4898532;29;20605;-68
2021/08/09 08:03:24;;;;;;;4.70;2.15;;;17.90;99.90;;;;;;4908284;29;20054;-68
2021/08/09 08:05:50;;;;;;;3.17;2.45;;;18.10;99.90;;;;;;4898429;29;20401;-69
2021/08/09 08:08:16;;;;;;;5.07;2.80;;;18.30;99.90;;;;;;4898189;29;20029;-69
2021/08/09 08:10:42;;;;;;;6.43;2.70;;;18.20;99.90;;;;;;4898443;29;20029;-69
2021/08/09 08:13:07;;;;;;;4.35;2.80;;;18.10;99.90;;;;;;4897552;29;20036;-69
2021/08/09 08:15:33;;;;;;;3.20;2.53;;;18.10;99.90;;;;;;4898021;29;20037;-68
2021/08/09 08:17:59;;;;;;;2.47;2.25;;;18.10;99.90;;;;;;4897870;29;20033;-68
2021/08/09 08:20:25;;;;;;;6.53;2.95;;;18.10;99.90;;;;;;4898091;29;20024;-68
2021/08/09 08:22:51;;;;;;;3.88;2.67;;;18.00;99.90;;;;;;4898028;29;20029;-68
2021/08/09 08:25:17;;;;;;;7.75;2.80;;;18.10;99.90;;;;;;4897828;29;20520;-68
2021/08/09 08:27:42;;;;;;;5.45;3.00;;;18.00;99.90;;;;;;4898246;29;20032;-67
2021/08/09 08:30:08;;;;;;;5.93;2.95;;;18.00;99.90;;;;;;4897736;29;20536;-67
2021/08/09 08:32:34;;;;;;;9.75;3.25;;;18.00;99.90;;;;;;4898219;29;20025;-67
2021/08/09 08:35:02;;;;;;;5.85;2.63;;;18.00;99.90;;;;;;4897996;29;20055;-67
2021/08/09 08:37:28;;;;;;;5.95;2.80;;;17.90;99.90;;;;;;4895635;29;20591;-68
2021/08/09 08:39:53;;;;;;;3.22;2.35;;;17.90;99.90;;;;;;4896869;29;20044;-68
2021/08/09 08:42:19;;;;;;;8.27;2.80;;;17.90;99.90;;;;;;4897456;29;20025;-68
2021/08/09 08:44:45;;;;;;;5.18;2.83;;;17.90;99.90;;;;;;4897745;29;20080;-68
2021/08/09 08:47:16;;;;;;;5.68;2.58;;;17.80;99.90;;;;;;4897201;29;20035;-67
2021/08/09 08:49:44;;;;;;;4.22;2.33;;;17.80;99.90;;;;;;4897619;29;20048;-67
2021/08/09 08:52:09;;;;;;;5.13;2.22;;;17.80;99.90;;;;;;4902150;29;20504;-68
2021/08/09 08:54:36;;;;;;;5.30;2.80;;;17.80;99.90;;;;;;4899901;29;20043;-68
2021/08/09 08:57:04;;;;;;;5.07;2.70;;;17.80;99.90;;;;;;4896786;29;20488;-68
2021/08/09 08:59:31;;;;;;;5.25;2.50;;;17.80;99.90;;;;;;4897286;29;20037;-68
2021/08/09 09:01:57;;;;;;;4.93;2.67;;;17.80;99.90;;;;;;4897689;29;20024;-68
2021/08/09 09:04:32;;;;;;;6.50;2.20;;;17.80;99.90;;;;;;4897359;29;20112;-68
2021/08/09 09:07:08;;;;;;;6.43;2.70;;;17.70;99.90;;;;;;4897645;29;20029;-68
2021/08/09 09:09:37;;;;;;;4.30;2.22;;;17.70;99.90;;;;;;4897429;29;20073;-68
2021/08/09 09:12:17;;;;;;;4.28;2.05;;;17.70;99.90;;;;;;4897294;29;20560;-68
2021/08/09 09:14:45;;;;;;;4.18;2.00;;;17.70;99.90;;;;;;4897302;29;20040;-68
2021/08/09 09:17:11;;;;;;;4.60;2.30;;;17.60;99.90;;;;;;4897236;29;20050;-68
2021/08/09 09:19:38;;;;;;;4.45;2.22;;;17.60;99.90;;;;;;4897366;29;20099;-68
2021/08/09 09:22:18;;;;;;;4.80;2.58;;;17.60;99.90;;;;;;4896905;29;20040;-68
2021/08/09 09:24:52;;;;;;;5.47;2.22;;;17.60;99.90;;;;;;4896860;29;20493;-68
2021/08/09 09:27:30;;;;;;;4.20;2.22;;;17.60;99.90;;;;;;4896839;29;20044;-68
2021/08/09 09:29:57;;;;;;;3.40;2.00;;;17.60;99.90;;;;;;4896674;29;20029;-68
2021/08/09 09:32:23;;;;;;;7.50;2.45;;;17.60;99.90;;;;;;4897071;29;20511;-68
2021/08/09 09:34:50;;;;;;;3.22;2.15;;;17.60;99.90;;;;;;4896696;29;20036;-68
2021/08/09 09:37:49;;;;;;;3.15;2.08;;;17.60;99.90;;;;;;4897012;29;20166;-68
2021/08/09 09:40:17;;;;;;;2.42;1.92;;;17.70;99.90;;;;;;4896602;29;20017;-68
2021/08/09 09:42:43;;;;;;;2.65;2.45;;;17.60;99.90;;;;;;4896412;29;20111;-68
2021/08/09 09:45:26;;;;;;;2.75;1.88;;;17.60;99.90;;;;;;4896751;29;20449;-67
2021/08/09 09:48:06;;;;;;;1.90;1.70;;;17.60;99.90;;;;;;4896850;29;20031;-67
2021/08/09 09:50:34;;;;;;;3.33;1.77;;;17.50;99.90;;;;;;4896575;29;20053;-64
2021/08/09 09:53:19;;;;;;;3.00;1.92;;;17.50;99.90;;;;;;4900617;29;20481;-67
2021/08/09 09:55:49;;;;;;;3.35;2.17;;;17.40;99.90;;;;;;4900654;29;20037;-65
2021/08/09 09:58:16;;;;;;;3.55;2.13;;;17.40;99.90;;;;;;4900814;29;20103;-66
2021/08/09 10:00:42;;;;;;;4.90;2.38;;;17.40;99.90;;;;;;4901027;29;20039;-66
2021/08/09 10:03:11;;;;;;;2.47;2.28;;;17.40;99.90;;;;;;4900584;29;20384;-66
2021/08/09 10:05:42;;;;;;;3.85;2.08;;;17.40;99.90;;;;;;4900805;29;20137;-71
2021/08/09 10:08:18;;;;;;;4.53;2.50;;;17.40;99.90;;;;;;4900351;29;20489;-70
2021/08/09 10:10:49;;;;;;;4.53;2.40;;;17.40;99.90;;;;;;4900213;29;20069;-70
2021/08/09 10:13:23;;;;;;;7.00;2.28;;;17.40;99.90;;;;;;4905956;29;20029;-70
2021/08/09 10:15:52;;;;;;;5.30;2.20;;;17.30;99.90;;;;;;4900276;29;20043;-70
2021/08/09 10:18:29;;;;;;;6.32;2.45;;;17.30;99.90;;;;;;4902505;29;20025;-70
2021/08/09 10:20:57;;;;;;;3.28;2.28;;;17.40;99.90;;;;;;4900254;29;20032;-70
2021/08/09 10:23:39;;;;;;;3.55;2.30;;;17.30;99.90;;;;;;4905157;29;20032;-67
2021/08/09 10:26:07;;;;;;;3.88;2.55;;;17.30;99.90;;;;;;4906221;29;20024;-67
2021/08/09 10:28:51;;;;;;;3.60;2.03;;;17.30;99.90;;;;;;4909112;29;20024;-67
2021/08/09 10:31:31;;;;;;;4.97;2.55;;;17.40;99.90;;;;;;4901736;29;20021;-67
2021/08/09 10:33:58;;;;;;;6.47;2.30;;;17.40;99.90;;;;;;4900116;29;20025;-67
2021/08/09 10:36:25;;;;;;;6.45;2.50;;;17.30;99.90;;;;;;4900132;29;20048;-67
2021/08/09 10:38:59;;;;;;;7.30;3.10;;;17.30;99.90;;;;;;4900154;29;20112;-68
2021/08/09 10:41:34;;;;;;;4.53;2.10;;;17.30;99.90;;;;;;4900224;29;20036;-68
2021/08/09 10:44:06;;;;;;;3.67;2.92;;;17.30;99.90;;;;;;4900194;29;20413;-68
2021/08/09 10:46:38;;;;;;;3.65;1.98;;;17.30;99.90;;;;;;4899833;29;20045;-68
2021/08/09 10:49:09;;;;;;;7.88;2.80;;;17.30;99.90;;;;;;4899672;29;20057;-68
2021/08/09 10:51:53;;;;;;;3.40;2.65;;;17.20;99.90;;;;;;4898333;29;20173;-68
2021/08/09 10:54:35;;;;;;;2.80;2.40;;;17.20;99.90;;;;;;4899501;29;20060;-68
2021/08/09 10:57:02;;;;;;;7.80;3.85;;;17.30;99.90;;;;;;4899726;29;20578;-68
2021/08/09 10:59:45;;;;;;;4.40;2.50;;;17.30;99.90;;;;;;4899464;29;20049;-68
2021/08/09 11:02:21;;;;;;;7.72;2.30;;;17.40;99.90;;;;;;4899078;29;20024;-67
2021/08/09 11:05:15;;;;;;;2.95;2.10;;;17.40;99.90;;;;;;4899855;29;20035;-68
2021/08/09 11:07:42;;;;;;;6.60;2.72;;;17.40;99.90;;;;;;4899521;29;20081;-68
2021/08/09 11:10:08;;;;;;;4.45;2.53;;;17.30;99.90;;;;;;4899337;29;20027;-68
2021/08/09 11:12:54;;;;;;;3.85;2.63;;;17.30;99.90;;;;;;4899418;29;20037;-68
2021/08/09 11:15:19;;;;;;;3.80;2.10;;;17.40;99.90;;;;;;4899032;29;20072;-67
2021/08/09 11:17:47;;;;;;;3.28;2.20;;;17.30;99.90;;;;;;4899159;29;20049;-67
2021/08/09 11:20:24;;;;;;;4.80;2.15;;;17.30;99.90;;;;;;4912408;29;20032;-67
2021/08/09 11:23:10;;;;;;;4.28;2.83;;;17.20;99.90;;;;;;4918415;29;20024;-68
2021/08/09 11:25:41;;;;;;;5.40;2.75;;;17.30;99.90;;;;;;4918037;29;20031;-67
2021/08/09 11:28:16;;;;;;;2.97;2.53;;;17.30;99.90;;;;;;4917964;29;20096;-67
2021/08/09 11:30:53;;;;;;;5.38;2.90;;;17.30;99.90;;;;;;4917998;29;20021;-67
2021/08/09 11:33:33;;;;;;;7.18;2.65;;;17.30;99.90;;;;;;4918138;29;20035;-67
2021/08/09 11:36:06;;;;;;;3.35;2.58;;;17.30;99.90;;;;;;4917863;29;20071;-67
2021/08/09 11:38:54;;;;;;;5.10;2.65;;;17.30;99.90;;;;;;4917996;29;20361;-67
2021/08/09 11:41:21;;;;;;;5.20;2.75;;;17.30;99.90;;;;;;4917706;29;20027;-67
2021/08/09 11:43:48;;;;;;;4.38;2.10;;;17.30;99.90;;;;;;4917940;29;20057;-67
2021/08/09 11:46:16;;;;;;;3.83;2.38;;;17.40;99.90;;;;;;4917517;29;20543;-68
2021/08/09 11:48:45;;;;;;;7.68;2.47;;;17.40;99.90;;;;;;4917464;29;20028;-67
2021/08/09 11:51:13;;;;;;;5.13;2.47;;;17.40;99.90;;;;;;4917512;29;20044;-67
2021/08/09 11:53:41;;;;;;;3.67;2.30;;;17.40;99.90;;;;;;4917620;29;20076;-68
2021/08/09 11:56:14;;;;;;;5.55;2.40;;;17.30;99.90;;;;;;4917478;29;20512;-68
2021/08/09 11:58:43;;;;;;;6.30;2.35;;;17.30;99.90;;;;;;4917518;29;20036;-67
2021/08/09 12:01:17;;;;;;;6.30;2.60;;;17.30;99.90;;;;;;4917432;29;20063;-67
2021/08/09 12:04:02;;;;;;;8.25;2.40;;;17.30;99.90;;;;;;4917338;29;20028;-68
2021/08/09 12:06:28;;;;;;;3.40;2.10;;;17.40;99.90;;;;;;4917160;29;20028;-66
2021/08/09 12:08:54;;;;;;;2.15;1.80;;;17.40;99.90;;;;;;4916993;29;20092;-67
2021/08/09 12:11:38;;;;;;;4.07;1.90;;;17.30;99.90;;;;;;4916979;29;20035;-67
2021/08/09 12:14:14;;;;;;;2.33;1.50;;;17.60;99.90;;;;;;4916306;29;20028;-68
2021/08/09 12:16:47;;;;;;;3.08;1.60;;;17.50;99.90;;;;;;4917045;29;20043;-68
2021/08/09 12:19:15;;;;;;;4.13;2.20;;;17.40;99.90;;;;;;4917143;29;20102;-68
2021/08/09 12:21:41;;;;;;;6.40;2.30;;;17.30;99.90;;;;;;4917271;29;20028;-68
2021/08/09 12:24:27;;;;;;;2.70;2.45;;;17.30;99.90;;;;;;4916968;29;20028;-68
2021/08/09 12:26:53;;;;;;;5.43;2.60;;;17.30;99.90;;;;;;4916575;29;20086;-68
2021/08/09 12:29:23;;;;;;;3.53;2.15;;;17.30;99.90;;;;;;4916697;29;20032;-68
2021/08/09 12:31:50;;;;;;;3.47;2.38;;;17.30;99.90;;;;;;4916998;29;20100;-69
2021/08/09 12:34:23;;;;;;;4.05;2.38;;;17.20;99.90;;;;;;4916389;29;20379;-68
2021/08/09 12:36:50;;;;;;;3.72;2.50;;;17.50;99.90;;;;;;4917033;29;20047;-69
2021/08/09 12:39:31;;;;;;;4.65;2.22;;;17.50;99.90;;;;;;4916803;29;20103;-68
2021/08/09 12:41:57;;;;;;;3.95;2.47;;;17.40;99.90;;;;;;4916897;29;20039;-68
2021/08/09 12:44:22;;;;;;;5.38;3.00;;;17.40;99.90;;;;;;4903714;29;20028;-67
2021/08/09 12:46:48;;;;;;;4.25;2.50;;;17.30;99.90;;;;;;4915442;29;20077;-68
2021/08/09 12:49:14;;;;;;;8.25;3.70;;;17.20;99.90;;;;;;4899441;29;20051;-68
2021/08/09 12:51:40;;;;;;;4.65;2.50;;;17.20;99.90;;;;;;4897660;29;20040;-68
2021/08/09 12:54:05;;;;;;;3.95;2.60;;;17.10;99.90;;;;;;4897858;29;20103;-68
2021/08/09 12:56:31;;;;;;;5.40;3.20;;;17.00;99.90;;;;;;4898626;29;20556;-68
2021/08/09 12:58:57;;;;;;;4.30;2.65;;;17.00;99.90;;;;;;4916684;29;20388;-68
2021/08/09 13:01:23;;;;;;;4.68;2.58;;;17.10;99.90;;;;;;4916242;29;20064;-68
2021/08/09 13:03:48;;;;;;;4.38;2.67;;;17.00;99.90;;;;;;4916572;29;20031;-68
2021/08/09 13:06:14;;;;;;;5.93;3.10;;;17.00;99.90;;;;;;4899798;29;20028;-68
2021/08/09 13:08:40;;;;;;;6.95;2.75;;;16.90;99.90;;;;;;4897515;29;20028;-68
2021/08/09 13:11:06;;;;;;;13.80;3.10;;;16.90;99.90;;;;;;4915878;29;20391;-67
2021/08/09 13:13:31;;;;;;;4.90;2.42;;;16.90;99.90;;;;;;4892597;29;20485;-68
2021/08/09 13:15:58;;;;;;;4.82;2.35;;;16.90;99.90;;;;;;4896591;29;20122;-67
2021/08/09 13:18:24;;;;;;;8.77;3.00;;;16.90;99.90;;;;;;4896900;29;20384;-67
2021/08/09 13:20:52;;;;;;;6.40;2.70;;;16.90;99.90;;;;;;4896758;29;20510;-67
2021/08/09 13:23:19;;;;;;;5.90;2.22;;;16.90;99.90;;;;;;4896665;29;20028;-67